能登空港の過去48時間の天気

能登空港 (Noto)

現在時刻: 8/13 17:30 JST (8/13 08:30 UTC) 以下の時間は現地時間です。

過去48時間のMETAR気象情報
時間 風向 風速(m/s) 視程 気温(℃) 湿度(%) 気圧(hPa) 天気現象
13 17:00 2 10km以上 26 89 1007
13 16:00 不定 2 10km以上 25 94 1007 周辺でしゅう雨 もや
13 15:00 不定 2 3000m 26 94 1007 弱い雷雨 もや
13 14:00 東南東 2 10km以上 27 84 1007 弱いしゅう雨 もや
13 13:00 3 10km以上 30 75 1007
13 12:00 不定 2 10km以上 30 75 1007
13 11:00 西北西 2 10km以上 29 79 1008 周辺でしゅう雨
13 10:00 南南西 2 10km以上 30 75 1008
13 09:00 南西 4 10km以上 29 79 1008
13 08:00 不定 2 10km以上 27 89 1008
RJNW 130800Z 08004KT 040V100 9999 FEW000 SCT100 BKN/// 26/24 Q1007
RJNW 130700Z VRB04KT 9999 VCSH BR FEW000 SCT015 FEW020CB BKN035 25/24 Q1007
RJNW 130600Z VRB03KT 3000 -TSRA BR FEW000 SCT020CB BKN040 26/25 Q1007
RJNW 130500Z 11004KT 010V190 9999 -SHRA BR FEW000 SCT015TCU BKN020 27/24 Q1007
RJNW 130400Z VRB06KT 9999 FEW015 SCT020TCU 30/25 Q1007
RJNW 130300Z VRB04KT 9999 FEW010 SCT020 30/25 Q1007
RJNW 130200Z 29003KT 230V010 9999 VCSH FEW010 BKN020 FEW020TCU 29/25 Q1008
RJNW 130100Z 21003KT 140V300 9999 FEW015 SCT020 30/25 Q1008
RJNW 130000Z 22007KT 180V260 9999 FEW015 29/25 Q1008
RJNW 122300Z VRB03KT 9999 FEW010 SCT070 BKN/// 27/25 Q1008